sensor_id;sensor_type;location;lat;lon;timestamp;P1;durP1;ratioP1;P2;durP2;ratioP2
4078;SDS011;2054;47.858;11.156;2022-12-18T03:45:41;32.17;;;11.40;;
4078;SDS011;2054;47.858;11.156;2022-12-18T03:48:11;33.53;;;13.05;;
4078;SDS011;2054;47.858;11.156;2022-12-18T03:50:43;37.85;;;13.23;;
4078;SDS011;2054;47.858;11.156;2022-12-18T03:53:15;32.65;;;13.18;;
4078;SDS011;2054;47.858;11.156;2022-12-18T03:55:44;31.00;;;10.73;;
4078;SDS011;2054;47.858;11.156;2022-12-18T03:58:15;31.60;;;10.95;;
4078;SDS011;2054;47.858;11.156;2022-12-18T04:00:45;32.92;;;12.05;;
4078;SDS011;2054;47.858;11.156;2022-12-18T04:03:14;31.00;;;11.57;;
4078;SDS011;2054;47.858;11.156;2022-12-18T04:05:43;33.00;;;11.38;;
4078;SDS011;2054;47.858;11.156;2022-12-18T04:08:10;32.38;;;12.00;;
4078;SDS011;2054;47.858;11.156;2022-12-18T04:10:38;26.50;;;10.60;;
4078;SDS011;2054;47.858;11.156;2022-12-18T04:13:05;29.27;;;11.00;;
4078;SDS011;2054;47.858;11.156;2022-12-18T04:15:32;33.45;;;12.05;;
4078;SDS011;2054;47.858;11.156;2022-12-18T04:18:02;30.15;;;11.57;;
4078;SDS011;2054;47.858;11.156;2022-12-18T04:20:29;30.90;;;11.30;;
4078;SDS011;2054;47.858;11.156;2022-12-18T04:22:56;27.35;;;10.80;;
4078;SDS011;2054;47.858;11.156;2022-12-18T04:25:24;33.08;;;11.15;;
4078;SDS011;2054;47.858;11.156;2022-12-18T04:27:51;31.13;;;10.90;;
4078;SDS011;2054;47.858;11.156;2022-12-18T04:30:18;32.08;;;11.93;;
4078;SDS011;2054;47.858;11.156;2022-12-18T04:32:45;29.92;;;11.35;;
4078;SDS011;2054;47.858;11.156;2022-12-18T04:35:14;29.48;;;11.13;;
4078;SDS011;2054;47.858;11.156;2022-12-18T04:37:41;27.60;;;10.15;;
4078;SDS011;2054;47.858;11.156;2022-12-18T04:40:08;32.58;;;11.77;;
4078;SDS011;2054;47.858;11.156;2022-12-18T04:42:36;32.20;;;12.13;;
4078;SDS011;2054;47.858;11.156;2022-12-18T04:45:03;34.28;;;11.35;;
4078;SDS011;2054;47.858;11.156;2022-12-18T04:47:30;27.80;;;10.27;;
4078;SDS011;2054;47.858;11.156;2022-12-18T04:49:57;30.65;;;11.75;;
4078;SDS011;2054;47.858;11.156;2022-12-18T04:52:26;30.92;;;10.13;;
4078;SDS011;2054;47.858;11.156;2022-12-18T04:54:56;27.25;;;10.32;;
4078;SDS011;2054;47.858;11.156;2022-12-18T04:57:23;27.08;;;11.80;;
4078;SDS011;2054;47.858;11.156;2022-12-18T04:59:51;28.98;;;11.48;;
4078;SDS011;2054;47.858;11.156;2022-12-18T05:02:18;35.30;;;12.40;;
4078;SDS011;2054;47.858;11.156;2022-12-18T05:04:45;31.50;;;11.77;;
4078;SDS011;2054;47.858;11.156;2022-12-18T05:07:12;32.53;;;11.20;;
4078;SDS011;2054;47.858;11.156;2022-12-18T05:09:41;35.33;;;12.25;;
4078;SDS011;2054;47.858;11.156;2022-12-18T05:12:08;31.50;;;10.48;;
4078;SDS011;2054;47.858;11.156;2022-12-18T05:14:35;35.50;;;12.18;;
4078;SDS011;2054;47.858;11.156;2022-12-18T05:17:02;36.22;;;12.68;;
4078;SDS011;2054;47.858;11.156;2022-12-18T05:19:29;37.88;;;11.88;;
4078;SDS011;2054;47.858;11.156;2022-12-18T05:21:57;33.90;;;13.00;;
4078;SDS011;2054;47.858;11.156;2022-12-18T05:24:24;37.75;;;14.48;;
4078;SDS011;2054;47.858;11.156;2022-12-18T05:26:52;33.45;;;11.95;;
4078;SDS011;2054;47.858;11.156;2022-12-18T05:29:19;36.22;;;12.27;;
4078;SDS011;2054;47.858;11.156;2022-12-18T05:31:47;38.80;;;12.63;;
4078;SDS011;2054;47.858;11.156;2022-12-18T05:34:14;30.73;;;10.80;;
4078;SDS011;2054;47.858;11.156;2022-12-18T05:36:41;30.63;;;12.02;;
4078;SDS011;2054;47.858;11.156;2022-12-18T05:39:08;29.90;;;12.38;;
4078;SDS011;2054;47.858;11.156;2022-12-18T05:41:35;33.10;;;11.65;;
4078;SDS011;2054;47.858;11.156;2022-12-18T05:44:04;29.40;;;11.13;;
4078;SDS011;2054;47.858;11.156;2022-12-18T05:46:32;35.97;;;11.93;;
4078;SDS011;2054;47.858;11.156;2022-12-18T05:48:59;33.13;;;11.35;;
4078;SDS011;2054;47.858;11.156;2022-12-18T05:51:26;35.30;;;11.45;;
4078;SDS011;2054;47.858;11.156;2022-12-18T05:53:54;38.97;;;12.65;;
4078;SDS011;2054;47.858;11.156;2022-12-18T05:56:21;31.33;;;11.52;;
4078;SDS011;2054;47.858;11.156;2022-12-18T05:58:50;33.15;;;11.07;;
4078;SDS011;2054;47.858;11.156;2022-12-18T06:01:20;33.92;;;11.65;;
4078;SDS011;2054;47.858;11.156;2022-12-18T06:03:48;28.48;;;11.27;;
4078;SDS011;2054;47.858;11.156;2022-12-18T06:06:16;33.80;;;11.52;;
4078;SDS011;2054;47.858;11.156;2022-12-18T06:08:43;34.85;;;11.90;;
4078;SDS011;2054;47.858;11.156;2022-12-18T06:11:10;34.20;;;11.52;;
4078;SDS011;2054;47.858;11.156;2022-12-18T06:13:38;28.95;;;9.88;;
4078;SDS011;2054;47.858;11.156;2022-12-18T06:16:05;34.85;;;11.63;;
4078;SDS011;2054;47.858;11.156;2022-12-18T06:18:34;41.78;;;12.95;;
4078;SDS011;2054;47.858;11.156;2022-12-18T06:21:01;34.33;;;11.18;;
4078;SDS011;2054;47.858;11.156;2022-12-18T06:23:28;30.85;;;11.05;;
4078;SDS011;2054;47.858;11.156;2022-12-18T06:25:55;36.67;;;11.30;;
4078;SDS011;2054;47.858;11.156;2022-12-18T06:28:23;34.00;;;11.13;;
4078;SDS011;2054;47.858;11.156;2022-12-18T06:30:50;34.45;;;11.13;;
4078;SDS011;2054;47.858;11.156;2022-12-18T06:33:18;30.92;;;11.38;;
4078;SDS011;2054;47.858;11.156;2022-12-18T06:35:46;34.85;;;11.77;;
4078;SDS011;2054;47.858;11.156;2022-12-18T06:38:13;31.15;;;11.88;;
4078;SDS011;2054;47.858;11.156;2022-12-18T06:40:41;29.92;;;10.80;;
4078;SDS011;2054;47.858;11.156;2022-12-18T06:43:08;35.33;;;11.35;;
4078;SDS011;2054;47.858;11.156;2022-12-18T06:45:35;35.88;;;12.40;;
4078;SDS011;2054;47.858;11.156;2022-12-18T06:48:02;36.22;;;12.82;;
4078;SDS011;2054;47.858;11.156;2022-12-18T06:50:29;38.20;;;13.07;;
4078;SDS011;2054;47.858;11.156;2022-12-18T06:52:58;39.70;;;13.05;;
4078;SDS011;2054;47.858;11.156;2022-12-18T06:55:26;35.38;;;13.02;;
4078;SDS011;2054;47.858;11.156;2022-12-18T06:57:53;36.30;;;11.98;;
4078;SDS011;2054;47.858;11.156;2022-12-18T07:00:20;37.92;;;14.00;;
4078;SDS011;2054;47.858;11.156;2022-12-18T07:02:47;30.77;;;12.38;;
4078;SDS011;2054;47.858;11.156;2022-12-18T07:05:14;37.75;;;11.52;;
4078;SDS011;2054;47.858;11.156;2022-12-18T07:07:41;35.60;;;12.63;;
4078;SDS011;2054;47.858;11.156;2022-12-18T07:10:10;42.70;;;12.85;;
4078;SDS011;2054;47.858;11.156;2022-12-18T07:12:37;29.17;;;11.65;;
4078;SDS011;2054;47.858;11.156;2022-12-18T07:15:05;38.80;;;12.85;;
4078;SDS011;2054;47.858;11.156;2022-12-18T07:17:32;36.75;;;12.43;;
4078;SDS011;2054;47.858;11.156;2022-12-18T07:19:59;39.83;;;13.65;;
4078;SDS011;2054;47.858;11.156;2022-12-18T07:22:27;42.75;;;13.75;;
4078;SDS011;2054;47.858;11.156;2022-12-18T07:24:54;41.90;;;14.25;;
4078;SDS011;2054;47.858;11.156;2022-12-18T07:27:22;39.17;;;13.45;;
4078;SDS011;2054;47.858;11.156;2022-12-18T07:29:50;37.67;;;13.68;;
4078;SDS011;2054;47.858;11.156;2022-12-18T07:32:17;31.05;;;10.77;;
4078;SDS011;2054;47.858;11.156;2022-12-18T07:34:44;38.50;;;12.45;;
4078;SDS011;2054;47.858;11.156;2022-12-18T07:37:11;38.60;;;12.48;;
4078;SDS011;2054;47.858;11.156;2022-12-18T07:39:38;32.95;;;12.55;;
4078;SDS011;2054;47.858;11.156;2022-12-18T07:42:06;41.70;;;13.15;;
4078;SDS011;2054;47.858;11.156;2022-12-18T07:44:52;40.45;;;12.35;;
4078;SDS011;2054;47.858;11.156;2022-12-18T07:47:19;36.95;;;12.88;;
4078;SDS011;2054;47.858;11.156;2022-12-18T07:49:46;38.30;;;12.15;;
4078;SDS011;2054;47.858;11.156;2022-12-18T07:52:13;39.13;;;14.20;;
4078;SDS011;2054;47.858;11.156;2022-12-18T07:54:41;38.25;;;13.57;;
4078;SDS011;2054;47.858;11.156;2022-12-18T07:57:08;31.85;;;13.07;;
4078;SDS011;2054;47.858;11.156;2022-12-18T07:59:36;34.90;;;12.13;;
4078;SDS011;2054;47.858;11.156;2022-12-18T08:02:04;38.55;;;12.57;;
4078;SDS011;2054;47.858;11.156;2022-12-18T08:04:35;35.25;;;13.23;;
4078;SDS011;2054;47.858;11.156;2022-12-18T08:07:02;31.75;;;12.25;;
4078;SDS011;2054;47.858;11.156;2022-12-18T08:09:29;29.40;;;10.70;;
4078;SDS011;2054;47.858;11.156;2022-12-18T08:11:56;27.55;;;11.63;;
4078;SDS011;2054;47.858;11.156;2022-12-18T08:14:24;31.27;;;11.65;;
4078;SDS011;2054;47.858;11.156;2022-12-18T08:16:51;27.60;;;10.52;;
4078;SDS011;2054;47.858;11.156;2022-12-18T08:19:20;35.45;;;12.55;;
4078;SDS011;2054;47.858;11.156;2022-12-18T08:21:47;37.47;;;12.75;;
4078;SDS011;2054;47.858;11.156;2022-12-18T08:24:14;42.90;;;16.65;;
4078;SDS011;2054;47.858;11.156;2022-12-18T08:26:41;40.08;;;14.35;;
4078;SDS011;2054;47.858;11.156;2022-12-18T08:29:08;38.72;;;11.88;;
4078;SDS011;2054;47.858;11.156;2022-12-18T08:31:36;38.88;;;13.40;;
4078;SDS011;2054;47.858;11.156;2022-12-18T08:34:03;33.40;;;12.30;;
4078;SDS011;2054;47.858;11.156;2022-12-18T08:36:31;40.42;;;14.40;;
4078;SDS011;2054;47.858;11.156;2022-12-18T08:38:59;41.75;;;13.77;;
4078;SDS011;2054;47.858;11.156;2022-12-18T08:41:26;36.03;;;11.82;;
4078;SDS011;2054;47.858;11.156;2022-12-18T08:43:53;32.90;;;11.57;;
4078;SDS011;2054;47.858;11.156;2022-12-18T08:46:38;34.88;;;12.27;;
4078;SDS011;2054;47.858;11.156;2022-12-18T08:49:06;34.75;;;12.82;;
4078;SDS011;2054;47.858;11.156;2022-12-18T08:51:35;30.38;;;11.68;;
4078;SDS011;2054;47.858;11.156;2022-12-18T08:54:02;37.78;;;13.38;;
4078;SDS011;2054;47.858;11.156;2022-12-18T08:56:30;39.60;;;12.20;;
4078;SDS011;2054;47.858;11.156;2022-12-18T08:58:58;36.53;;;12.70;;
4078;SDS011;2054;47.858;11.156;2022-12-18T09:01:25;34.90;;;12.85;;
4078;SDS011;2054;47.858;11.156;2022-12-18T09:03:52;38.45;;;13.43;;
4078;SDS011;2054;47.858;11.156;2022-12-18T09:06:20;40.15;;;14.10;;
4078;SDS011;2054;47.858;11.156;2022-12-18T09:08:49;42.95;;;14.20;;
4078;SDS011;2054;47.858;11.156;2022-12-18T09:11:19;41.17;;;14.95;;
4078;SDS011;2054;47.858;11.156;2022-12-18T09:13:46;41.05;;;12.77;;
4078;SDS011;2054;47.858;11.156;2022-12-18T09:16:13;35.88;;;13.30;;
4078;SDS011;2054;47.858;11.156;2022-12-18T09:18:41;29.38;;;10.90;;
4078;SDS011;2054;47.858;11.156;2022-12-18T09:21:09;27.25;;;9.75;;
4078;SDS011;2054;47.858;11.156;2022-12-18T09:23:36;29.55;;;11.30;;
4078;SDS011;2054;47.858;11.156;2022-12-18T09:26:04;25.23;;;10.15;;
4078;SDS011;2054;47.858;11.156;2022-12-18T09:28:33;23.27;;;10.27;;
4078;SDS011;2054;47.858;11.156;2022-12-18T09:31:03;25.35;;;11.00;;
4078;SDS011;2054;47.858;11.156;2022-12-18T09:33:30;25.25;;;10.57;;
4078;SDS011;2054;47.858;11.156;2022-12-18T09:35:58;27.05;;;12.23;;
4078;SDS011;2054;47.858;11.156;2022-12-18T09:38:27;26.48;;;11.43;;
4078;SDS011;2054;47.858;11.156;2022-12-18T09:40:56;24.30;;;10.95;;
4078;SDS011;2054;47.858;11.156;2022-12-18T09:43:28;31.73;;;11.65;;
4078;SDS011;2054;47.858;11.156;2022-12-18T09:45:57;24.70;;;10.23;;
4078;SDS011;2054;47.858;11.156;2022-12-18T09:48:26;23.85;;;10.40;;
4078;SDS011;2054;47.858;11.156;2022-12-18T09:50:55;26.05;;;10.90;;
4078;SDS011;2054;47.858;11.156;2022-12-18T09:53:25;23.10;;;10.32;;
4078;SDS011;2054;47.858;11.156;2022-12-18T09:55:53;28.05;;;11.30;;
4078;SDS011;2054;47.858;11.156;2022-12-18T09:58:24;24.98;;;11.65;;
4078;SDS011;2054;47.858;11.156;2022-12-18T10:00:55;27.00;;;11.07;;
4078;SDS011;2054;47.858;11.156;2022-12-18T10:03:22;25.40;;;10.02;;
4078;SDS011;2054;47.858;11.156;2022-12-18T10:05:53;23.00;;;10.30;;
4078;SDS011;2054;47.858;11.156;2022-12-18T10:08:23;26.08;;;10.60;;
4078;SDS011;2054;47.858;11.156;2022-12-18T10:10:52;25.50;;;10.13;;
4078;SDS011;2054;47.858;11.156;2022-12-18T10:13:22;24.92;;;10.68;;
4078;SDS011;2054;47.858;11.156;2022-12-18T10:15:54;21.42;;;9.40;;
4078;SDS011;2054;47.858;11.156;2022-12-18T10:18:28;21.13;;;9.32;;
4078;SDS011;2054;47.858;11.156;2022-12-18T10:21:00;24.42;;;9.35;;
4078;SDS011;2054;47.858;11.156;2022-12-18T10:23:30;22.60;;;9.55;;
4078;SDS011;2054;47.858;11.156;2022-12-18T10:26:00;23.50;;;10.65;;
4078;SDS011;2054;47.858;11.156;2022-12-18T10:28:29;26.90;;;10.90;;
4078;SDS011;2054;47.858;11.156;2022-12-18T10:30:57;25.42;;;10.63;;
4078;SDS011;2054;47.858;11.156;2022-12-18T10:33:28;25.02;;;10.32;;
4078;SDS011;2054;47.858;11.156;2022-12-18T10:35:56;23.73;;;10.10;;
4078;SDS011;2054;47.858;11.156;2022-12-18T10:38:25;24.33;;;12.85;;
4078;SDS011;2054;47.858;11.156;2022-12-18T10:40:54;25.00;;;11.07;;
4078;SDS011;2054;47.858;11.156;2022-12-18T10:43:24;26.60;;;10.85;;
4078;SDS011;2054;47.858;11.156;2022-12-18T10:45:59;22.42;;;10.07;;
4078;SDS011;2054;47.858;11.156;2022-12-18T10:48:31;23.42;;;10.93;;
4078;SDS011;2054;47.858;11.156;2022-12-18T10:50:59;24.73;;;10.25;;
4078;SDS011;2054;47.858;11.156;2022-12-18T10:53:27;27.30;;;10.88;;
4078;SDS011;2054;47.858;11.156;2022-12-18T10:55:55;29.35;;;10.75;;
4078;SDS011;2054;47.858;11.156;2022-12-18T10:58:24;26.90;;;10.55;;
4078;SDS011;2054;47.858;11.156;2022-12-18T11:01:05;29.42;;;12.18;;
4078;SDS011;2054;47.858;11.156;2022-12-18T11:03:34;28.98;;;11.07;;
4078;SDS011;2054;47.858;11.156;2022-12-18T11:06:02;29.02;;;10.73;;
4078;SDS011;2054;47.858;11.156;2022-12-18T11:08:30;32.42;;;12.63;;
4078;SDS011;2054;47.858;11.156;2022-12-18T11:10:57;32.38;;;11.82;;
4078;SDS011;2054;47.858;11.156;2022-12-18T11:13:25;25.77;;;11.65;;
4078;SDS011;2054;47.858;11.156;2022-12-18T11:15:53;25.40;;;11.48;;
4078;SDS011;2054;47.858;11.156;2022-12-18T11:18:22;28.60;;;11.35;;
4078;SDS011;2054;47.858;11.156;2022-12-18T11:20:52;30.77;;;11.60;;
4078;SDS011;2054;47.858;11.156;2022-12-18T11:23:20;27.05;;;11.98;;
4078;SDS011;2054;47.858;11.156;2022-12-18T11:25:52;23.83;;;10.38;;
4078;SDS011;2054;47.858;11.156;2022-12-18T11:28:27;29.10;;;12.07;;
4078;SDS011;2054;47.858;11.156;2022-12-18T11:33:40;26.83;;;10.25;;
4078;SDS011;2054;47.858;11.156;2022-12-18T11:36:10;28.95;;;10.55;;
4078;SDS011;2054;47.858;11.156;2022-12-18T11:38:38;24.08;;;10.90;;
4078;SDS011;2054;47.858;11.156;2022-12-18T11:41:07;26.25;;;10.85;;
4078;SDS011;2054;47.858;11.156;2022-12-18T11:43:41;26.50;;;11.75;;
4078;SDS011;2054;47.858;11.156;2022-12-18T11:46:11;25.38;;;11.48;;
4078;SDS011;2054;47.858;11.156;2022-12-18T11:48:41;26.23;;;10.65;;
4078;SDS011;2054;47.858;11.156;2022-12-18T11:51:13;28.75;;;11.95;;
4078;SDS011;2054;47.858;11.156;2022-12-18T11:53:41;26.20;;;11.45;;
4078;SDS011;2054;47.858;11.156;2022-12-18T11:56:13;26.83;;;10.93;;
4078;SDS011;2054;47.858;11.156;2022-12-18T11:58:47;27.38;;;11.85;;
4078;SDS011;2054;47.858;11.156;2022-12-18T12:01:18;29.45;;;12.57;;
4078;SDS011;2054;47.858;11.156;2022-12-18T12:04:00;28.75;;;11.20;;
4078;SDS011;2054;47.858;11.156;2022-12-18T12:06:34;25.88;;;10.48;;
4078;SDS011;2054;47.858;11.156;2022-12-18T12:09:05;29.92;;;11.68;;
4078;SDS011;2054;47.858;11.156;2022-12-18T12:11:36;29.65;;;12.82;;
4078;SDS011;2054;47.858;11.156;2022-12-18T12:16:50;26.25;;;11.98;;
4078;SDS011;2054;47.858;11.156;2022-12-18T12:19:26;27.05;;;10.48;;
4078;SDS011;2054;47.858;11.156;2022-12-18T12:22:00;26.63;;;11.35;;
4078;SDS011;2054;47.858;11.156;2022-12-18T12:24:33;31.38;;;11.75;;
4078;SDS011;2054;47.858;11.156;2022-12-18T12:27:05;30.45;;;12.38;;
4078;SDS011;2054;47.858;11.156;2022-12-18T12:29:39;28.23;;;12.50;;
4078;SDS011;2054;47.858;11.156;2022-12-18T12:32:12;37.55;;;12.73;;
4078;SDS011;2054;47.858;11.156;2022-12-18T12:34:45;27.98;;;12.23;;
4078;SDS011;2054;47.858;11.156;2022-12-18T12:37:19;31.13;;;13.52;;
4078;SDS011;2054;47.858;11.156;2022-12-18T12:39:48;31.25;;;12.00;;
4078;SDS011;2054;47.858;11.156;2022-12-18T12:42:18;30.45;;;12.43;;
4078;SDS011;2054;47.858;11.156;2022-12-18T12:45:05;31.80;;;11.35;;
4078;SDS011;2054;47.858;11.156;2022-12-18T12:47:33;30.55;;;11.82;;
4078;SDS011;2054;47.858;11.156;2022-12-18T12:50:03;32.22;;;12.82;;
4078;SDS011;2054;47.858;11.156;2022-12-18T12:52:34;36.20;;;12.65;;
4078;SDS011;2054;47.858;11.156;2022-12-18T12:55:04;32.08;;;12.23;;
4078;SDS011;2054;47.858;11.156;2022-12-18T12:57:33;29.17;;;11.52;;
4078;SDS011;2054;47.858;11.156;2022-12-18T13:00:03;30.98;;;11.38;;
4078;SDS011;2054;47.858;11.156;2022-12-18T13:02:33;31.02;;;12.75;;
4078;SDS011;2054;47.858;11.156;2022-12-18T13:05:02;30.40;;;12.63;;
4078;SDS011;2054;47.858;11.156;2022-12-18T13:07:32;31.85;;;11.75;;
4078;SDS011;2054;47.858;11.156;2022-12-18T13:12:56;29.77;;;11.75;;
4078;SDS011;2054;47.858;11.156;2022-12-18T13:15:23;30.33;;;11.70;;
4078;SDS011;2054;47.858;11.156;2022-12-18T13:18:02;31.40;;;12.93;;
4078;SDS011;2054;47.858;11.156;2022-12-18T13:20:32;28.83;;;12.02;;
4078;SDS011;2054;47.858;11.156;2022-12-18T13:23:17;30.02;;;10.90;;
4078;SDS011;2054;47.858;11.156;2022-12-18T13:25:48;29.08;;;11.82;;
4078;SDS011;2054;47.858;11.156;2022-12-18T13:28:18;31.00;;;12.02;;
4078;SDS011;2054;47.858;11.156;2022-12-18T13:30:48;31.92;;;12.60;;
4078;SDS011;2054;47.858;11.156;2022-12-18T13:33:38;27.13;;;11.73;;
4078;SDS011;2054;47.858;11.156;2022-12-18T13:36:09;30.35;;;11.73;;
4078;SDS011;2054;47.858;11.156;2022-12-18T13:38:40;32.05;;;10.75;;
4078;SDS011;2054;47.858;11.156;2022-12-18T13:41:21;30.83;;;13.02;;
4078;SDS011;2054;47.858;11.156;2022-12-18T13:43:50;28.27;;;10.30;;
4078;SDS011;2054;47.858;11.156;2022-12-18T13:46:19;31.10;;;11.63;;
4078;SDS011;2054;47.858;11.156;2022-12-18T13:48:51;32.13;;;12.20;;
4078;SDS011;2054;47.858;11.156;2022-12-18T13:51:19;30.98;;;11.77;;
4078;SDS011;2054;47.858;11.156;2022-12-18T13:53:48;31.38;;;12.20;;
4078;SDS011;2054;47.858;11.156;2022-12-18T13:56:16;33.78;;;13.20;;
4078;SDS011;2054;47.858;11.156;2022-12-18T13:58:44;29.58;;;11.82;;
4078;SDS011;2054;47.858;11.156;2022-12-18T14:01:22;34.78;;;12.40;;
4078;SDS011;2054;47.858;11.156;2022-12-18T14:03:49;34.55;;;12.25;;
4078;SDS011;2054;47.858;11.156;2022-12-18T14:06:17;35.65;;;12.88;;
4078;SDS011;2054;47.858;11.156;2022-12-18T14:08:44;34.38;;;12.30;;
4078;SDS011;2054;47.858;11.156;2022-12-18T14:11:18;39.20;;;13.82;;
4078;SDS011;2054;47.858;11.156;2022-12-18T14:13:47;33.05;;;12.63;;
4078;SDS011;2054;47.858;11.156;2022-12-18T14:16:15;28.58;;;12.32;;
4078;SDS011;2054;47.858;11.156;2022-12-18T14:18:45;32.90;;;11.60;;
4078;SDS011;2054;47.858;11.156;2022-12-18T14:21:22;27.25;;;11.23;;
4078;SDS011;2054;47.858;11.156;2022-12-18T14:24:02;30.05;;;11.35;;
4078;SDS011;2054;47.858;11.156;2022-12-18T14:26:30;30.17;;;12.10;;
4078;SDS011;2054;47.858;11.156;2022-12-18T14:28:59;32.60;;;13.13;;
4078;SDS011;2054;47.858;11.156;2022-12-18T14:31:27;35.88;;;13.93;;
4078;SDS011;2054;47.858;11.156;2022-12-18T14:33:56;37.05;;;13.73;;
4078;SDS011;2054;47.858;11.156;2022-12-18T14:36:24;29.77;;;11.80;;
4078;SDS011;2054;47.858;11.156;2022-12-18T14:38:52;32.78;;;12.38;;
4078;SDS011;2054;47.858;11.156;2022-12-18T14:41:20;38.35;;;12.07;;
4078;SDS011;2054;47.858;11.156;2022-12-18T14:43:48;31.02;;;11.65;;
4078;SDS011;2054;47.858;11.156;2022-12-18T14:46:25;32.63;;;11.75;;
4078;SDS011;2054;47.858;11.156;2022-12-18T14:48:53;53.42;;;17.00;;
4078;SDS011;2054;47.858;11.156;2022-12-18T14:51:23;31.45;;;11.63;;
4078;SDS011;2054;47.858;11.156;2022-12-18T14:53:53;29.63;;;11.70;;
4078;SDS011;2054;47.858;11.156;2022-12-18T14:56:21;33.88;;;11.23;;
4078;SDS011;2054;47.858;11.156;2022-12-18T14:58:49;34.08;;;11.75;;
4078;SDS011;2054;47.858;11.156;2022-12-18T15:01:18;34.33;;;12.20;;
4078;SDS011;2054;47.858;11.156;2022-12-18T15:03:45;33.28;;;12.35;;
4078;SDS011;2054;47.858;11.156;2022-12-18T15:06:16;33.25;;;12.00;;
4078;SDS011;2054;47.858;11.156;2022-12-18T15:08:45;31.92;;;10.88;;
4078;SDS011;2054;47.858;11.156;2022-12-18T15:11:26;29.67;;;11.38;;
4078;SDS011;2054;47.858;11.156;2022-12-18T15:13:53;32.58;;;12.05;;
4078;SDS011;2054;47.858;11.156;2022-12-18T15:16:20;33.03;;;11.23;;
4078;SDS011;2054;47.858;11.156;2022-12-18T15:18:47;26.95;;;10.85;;
4078;SDS011;2054;47.858;11.156;2022-12-18T15:21:16;35.13;;;11.85;;
4078;SDS011;2054;47.858;11.156;2022-12-18T15:23:46;31.50;;;10.52;;
4078;SDS011;2054;47.858;11.156;2022-12-18T15:26:15;29.65;;;10.95;;
4078;SDS011;2054;47.858;11.156;2022-12-18T15:28:43;28.35;;;9.98;;
4078;SDS011;2054;47.858;11.156;2022-12-18T15:31:24;34.33;;;12.00;;
4078;SDS011;2054;47.858;11.156;2022-12-18T15:34:12;31.70;;;13.30;;
4078;SDS011;2054;47.858;11.156;2022-12-18T15:36:39;39.78;;;13.60;;
4078;SDS011;2054;47.858;11.156;2022-12-18T15:39:09;37.63;;;13.52;;
4078;SDS011;2054;47.858;11.156;2022-12-18T15:41:37;33.67;;;12.55;;
4078;SDS011;2054;47.858;11.156;2022-12-18T15:44:16;29.13;;;12.60;;
4078;SDS011;2054;47.858;11.156;2022-12-18T15:46:47;34.67;;;11.75;;
4078;SDS011;2054;47.858;11.156;2022-12-18T15:49:14;32.03;;;11.98;;
4078;SDS011;2054;47.858;11.156;2022-12-18T15:51:41;31.25;;;12.25;;
4078;SDS011;2054;47.858;11.156;2022-12-18T15:54:11;36.10;;;12.48;;
4078;SDS011;2054;47.858;11.156;2022-12-18T15:56:39;31.98;;;11.82;;
4078;SDS011;2054;47.858;11.156;2022-12-18T15:59:24;28.90;;;11.00;;
4078;SDS011;2054;47.858;11.156;2022-12-18T16:01:51;34.17;;;12.52;;
4078;SDS011;2054;47.858;11.156;2022-12-18T16:04:19;36.60;;;13.07;;
4078;SDS011;2054;47.858;11.156;2022-12-18T16:06:46;33.35;;;11.77;;
4078;SDS011;2054;47.858;11.156;2022-12-18T16:09:15;31.25;;;11.50;;
4078;SDS011;2054;47.858;11.156;2022-12-18T16:11:42;32.08;;;12.38;;
4078;SDS011;2054;47.858;11.156;2022-12-18T16:14:20;31.48;;;12.68;;
4078;SDS011;2054;47.858;11.156;2022-12-18T16:16:48;34.30;;;13.25;;
4078;SDS011;2054;47.858;11.156;2022-12-18T16:19:15;32.92;;;12.70;;
4078;SDS011;2054;47.858;11.156;2022-12-18T16:21:42;34.33;;;12.48;;
4078;SDS011;2054;47.858;11.156;2022-12-18T16:24:12;43.47;;;14.32;;
4078;SDS011;2054;47.858;11.156;2022-12-18T16:26:42;32.88;;;12.30;;
4078;SDS011;2054;47.858;11.156;2022-12-18T16:29:09;39.05;;;13.98;;
4078;SDS011;2054;47.858;11.156;2022-12-18T16:31:37;44.92;;;16.83;;
4078;SDS011;2054;47.858;11.156;2022-12-18T16:34:11;37.90;;;15.77;;
4078;SDS011;2054;47.858;11.156;2022-12-18T16:36:38;38.78;;;14.10;;
4078;SDS011;2054;47.858;11.156;2022-12-18T16:39:05;40.60;;;14.48;;
4078;SDS011;2054;47.858;11.156;2022-12-18T16:41:32;41.47;;;16.60;;
4078;SDS011;2054;47.858;11.156;2022-12-18T16:44:02;38.55;;;16.55;;
4078;SDS011;2054;47.858;11.156;2022-12-18T16:46:29;35.53;;;13.45;;
4078;SDS011;2054;47.858;11.156;2022-12-18T16:48:56;42.33;;;15.85;;
4078;SDS011;2054;47.858;11.156;2022-12-18T16:51:24;34.17;;;14.00;;
4078;SDS011;2054;47.858;11.156;2022-12-18T16:53:52;34.97;;;12.80;;
4078;SDS011;2054;47.858;11.156;2022-12-18T16:56:19;36.53;;;13.60;;
4078;SDS011;2054;47.858;11.156;2022-12-18T16:58:49;29.73;;;11.43;;
4078;SDS011;2054;47.858;11.156;2022-12-18T17:01:18;35.90;;;13.25;;
4078;SDS011;2054;47.858;11.156;2022-12-18T17:03:50;36.22;;;11.48;;
4078;SDS011;2054;47.858;11.156;2022-12-18T17:06:17;29.17;;;10.90;;
4078;SDS011;2054;47.858;11.156;2022-12-18T17:08:45;34.35;;;12.48;;
4078;SDS011;2054;47.858;11.156;2022-12-18T17:11:12;41.65;;;21.52;;
4078;SDS011;2054;47.858;11.156;2022-12-18T17:13:39;34.08;;;11.98;;
4078;SDS011;2054;47.858;11.156;2022-12-18T17:16:07;35.03;;;15.10;;
4078;SDS011;2054;47.858;11.156;2022-12-18T17:18:36;43.53;;;17.98;;
4078;SDS011;2054;47.858;11.156;2022-12-18T17:21:04;40.55;;;13.50;;
4078;SDS011;2054;47.858;11.156;2022-12-18T17:23:33;36.05;;;12.32;;
4078;SDS011;2054;47.858;11.156;2022-12-18T17:26:01;42.90;;;13.75;;
4078;SDS011;2054;47.858;11.156;2022-12-18T17:28:31;42.42;;;13.38;;
4078;SDS011;2054;47.858;11.156;2022-12-18T17:30:58;43.53;;;17.73;;
4078;SDS011;2054;47.858;11.156;2022-12-18T17:33:26;50.80;;;21.20;;
4078;SDS011;2054;47.858;11.156;2022-12-18T17:35:56;40.03;;;15.18;;
4078;SDS011;2054;47.858;11.156;2022-12-18T17:38:24;46.30;;;18.30;;
4078;SDS011;2054;47.858;11.156;2022-12-18T17:40:51;36.63;;;12.65;;
4078;SDS011;2054;47.858;11.156;2022-12-18T17:43:19;44.72;;;15.60;;
4078;SDS011;2054;47.858;11.156;2022-12-18T17:45:46;36.40;;;13.13;;
4078;SDS011;2054;47.858;11.156;2022-12-18T17:48:13;38.90;;;13.15;;
4078;SDS011;2054;47.858;11.156;2022-12-18T17:50:40;46.70;;;14.15;;
4078;SDS011;2054;47.858;11.156;2022-12-18T17:53:09;37.85;;;12.93;;
4078;SDS011;2054;47.858;11.156;2022-12-18T17:55:36;42.83;;;14.23;;
4078;SDS011;2054;47.858;11.156;2022-12-18T17:58:03;42.80;;;14.35;;
4078;SDS011;2054;47.858;11.156;2022-12-18T18:00:31;42.15;;;14.00;;
4078;SDS011;2054;47.858;11.156;2022-12-18T18:02:58;40.33;;;15.00;;
4078;SDS011;2054;47.858;11.156;2022-12-18T18:05:25;48.50;;;15.80;;
4078;SDS011;2054;47.858;11.156;2022-12-18T18:07:52;44.40;;;13.75;;
4078;SDS011;2054;47.858;11.156;2022-12-18T18:10:21;40.15;;;13.23;;
4078;SDS011;2054;47.858;11.156;2022-12-18T18:12:48;40.10;;;13.52;;
4078;SDS011;2054;47.858;11.156;2022-12-18T18:15:33;45.03;;;15.57;;
4078;SDS011;2054;47.858;11.156;2022-12-18T18:18:00;43.80;;;13.13;;
4078;SDS011;2054;47.858;11.156;2022-12-18T18:20:27;38.80;;;12.02;;
4078;SDS011;2054;47.858;11.156;2022-12-18T18:22:54;48.80;;;13.68;;
4078;SDS011;2054;47.858;11.156;2022-12-18T18:25:23;40.70;;;13.65;;
4078;SDS011;2054;47.858;11.156;2022-12-18T18:27:50;44.65;;;13.75;;
4078;SDS011;2054;47.858;11.156;2022-12-18T18:30:20;41.17;;;13.20;;
4078;SDS011;2054;47.858;11.156;2022-12-18T18:32:47;41.75;;;14.13;;
4078;SDS011;2054;47.858;11.156;2022-12-18T18:35:14;39.95;;;13.95;;
4078;SDS011;2054;47.858;11.156;2022-12-18T18:37:41;43.65;;;14.45;;
4078;SDS011;2054;47.858;11.156;2022-12-18T18:40:09;41.83;;;14.98;;